• Join FlightAware (Why Join?)
  • Login
  • US Flag 
08:37PM EDT


 

Airport Tracker/Info


-or-


 

Live Flight TrackerFlight Track Log ✈ ASQ2566 ✈ 10-Apr-2013 ✈ KBTR - KDFW

Flight Track Log - Related Links

Times and Time Zones

All times are in EDT time to prevent confusion due to time zone crossing. See the ASQ2566 flight status page for this flight to view local times or setup timezone preferences in your user account.

Time Position Orientation Groundspeed Altitude Reporting Facility
EDT Latitude Longitude Course Direction KTS MPH feet Rate Location/Type
09:58PM 30.5642 -91.1058 323° Northwest 260 299 3,400  Level Houston Center
09:59PM 30.6225 -91.1647 319° Northwest 279 321 6,100 2,580 Climbing Houston Center
10:00PM 30.6814 -91.2325 315° West 291 335 8,800 2,460 Climbing Houston Center
10:01PM 30.7528 -91.3117 316° Northwest 301 346 11,200 2,220 Climbing Houston Center
10:02PM 30.8175 -91.3856 316° Northwest 319 367 13,400 1,800 Climbing Houston Center
10:03PM 30.9378 -91.5581 323° Northwest  Level FlightAware Approximate
10:03PM 30.8811 -91.4633 314° West 331 381 14,900  Level Houston Center
10:04PM 30.8447 -91.5561 245° Southwest 304 350 16,400 1,440 Climbing Houston Center
10:05PM 30.8006 -91.6461 240° Southwest 312 359 17,900 1,500 Climbing Houston Center
10:06PM 30.7578 -91.7406 242° Southwest 323 372 19,500 1,500 Climbing Houston Center
10:07PM 30.7158 -91.8339 242° Southwest 325 374 21,000 1,500 Climbing Houston Center
10:08PM 30.6653 -91.9489 243° Southwest 328 377 22,600 1,260 Climbing Houston Center
10:09PM 30.6214 -92.0464 242° Southwest 335 386 23,600 960 Climbing Houston Center
10:10PM 30.5756 -92.1478 242° Southwest 348 400 24,600 960 Climbing Houston Center
10:11PM 30.5300 -92.2478 242° Southwest 350 403 25,600 660 Climbing Houston Center
10:12PM 30.4839 -92.3506 243° Southwest 354 407 26,000 180 Climbing Houston Center
10:13PM 30.4328 -92.4619 242° Southwest 375 432 26,000 420 Level Houston Center
10:14PM 30.3822 -92.5728 242° Southwest 388 447 26,900 1,260 Climbing Houston Center
10:15PM 30.3336 -92.6781 242° Southwest 379 436 28,600 1,440 Climbing Houston Center
10:16PM 30.2903 -92.7764 243° Southwest 355 409 29,900 660 Climbing Houston Center
10:17PM 30.2347 -92.8658 234° Southwest 345 397 30,000  Climbing Houston Center
10:18PM 30.1717 -92.9853 239° Southwest 365 420 30,000  Level Houston Center
10:19PM 30.1253 -93.0875 242° Southwest 360 414 30,000  Level Houston Center
10:20PM 30.0772 -93.1922 242° Southwest 366 421 30,000  Level Houston Center
10:21PM 30.0283 -93.2969 242° Southwest 368 423 30,000  Level Houston Center
10:22PM 29.9803 -93.4019 242° Southwest 367 422 30,000  Level Houston Center
10:23PM 29.9325 -93.5075 242° Southwest 369 425 30,000  Level Houston Center
10:24PM 29.8833 -93.6122 242° Southwest 369 425 30,000  Level Houston Center
10:25PM 29.8353 -93.7167 242° Southwest 369 425 30,000  Level Houston Center
10:26PM 29.7717 -93.8092 232° Southwest 376 433 30,000  Level Houston Center
10:27PM 29.7336 -93.9125 247° West 389 448 30,000  Level Houston Center
10:28PM 29.7472 -94.0294 278° West 374 430 30,000  Level Houston Center
10:29PM 29.7639 -94.1742 278° West 380 437 30,000  Level Houston Center
10:30PM 29.7853 -94.2739 284° West 382 440 30,000  Level Houston Center
10:31PM 29.8114 -94.4161 282° West 382 440 30,000  Level Houston Center
10:32PM 29.8492 -94.5325 291° West 394 453 30,000  Level Houston Center
10:33PM 29.9006 -94.6428 298° West 395 455 30,000  Level Houston Center
10:34PM 29.9631 -94.7489 304° West 402 463 30,000  Level Houston Center
10:35PM 30.0194 -94.8553 301° West 409 471 30,000  Level Houston Center
10:37PM 30.0367 -94.9744 280° West 387 445 30,000  Level Houston Center
10:38PM 30.0414 -95.0933 273° West 376 433 30,000  Level Houston Center
10:39PM 29.9983 -95.2242 249° West 364 419 30,000  Level Houston Center
10:40PM 30.0011 -95.3381 272° West 389 448 30,000  Level Houston Center
10:41PM 30.1061 -95.4033 332° Northwest 454 522 30,000  Level Houston Center
10:42PM 30.2281 -95.4511 341° North 462 532 30,000  Level Houston Center
10:43PM 30.3492 -95.4994 341° North 461 531 30,000  Level Houston Center
10:44PM 30.4706 -95.5436 343° North 458 527 30,000  Level Houston Center
10:45PM 30.5939 -95.5914 342° North 465 535 30,000  Level Houston Center
10:46PM 30.7319 -95.6453 341° North 466 536 30,000  Level Houston Center
10:47PM 30.8553 -95.6933 342° North 465 535 30,000  Level Houston Center
10:48PM 30.9817 -95.7419 342° North 473 544 30,000  Level Houston Center
10:49PM 31.1078 -95.7914 341° North 473 544 30,000  Level Houston Center
10:49PM 31.1803 -95.8181 343° North 471 542 30,000 -600 Level Fort Worth Center
10:50PM 31.2919 -95.8964 329° Northwest 463 533 29,200 -900 Descending Fort Worth Center
10:51PM 31.4056 -95.9750 329° Northwest 472 543 28,200 -1,020 Descending Fort Worth Center
10:52PM 31.5192 -96.0486 331° Northwest 472 543 27,200 -1,020 Descending Fort Worth Center
10:53PM 31.6511 -96.0833 347° North 472 543 26,200 -1,800 Descending Fort Worth Center
10:54PM 31.7847 -96.0983 355° North 478 550 23,700 -2,460 Descending Fort Worth Center
10:55PM 31.9186 -96.1064 357° North 478 550 21,300 -2,400 Descending Fort Worth Center
10:56PM 32.0375 -96.0972 North 453 521 19,000 -2,280 Descending Fort Worth Center
10:57PM 32.1561 -96.0833 North 429 494 16,800 -1,500 Descending Fort Worth Center
10:58PM 32.2297 -96.1364 329° Northwest 347 399 16,000 -1,380 Descending Fort Worth Center
10:59PM 32.2853 -96.2461 301° West 330 380 14,100 -1,800 Descending Fort Worth Center
11:00PM 32.3256 -96.3317 299° West 339 390 12,500 -1,440 Descending Fort Worth Center
11:01PM 32.3681 -96.4222 299° West 305 351 11,300 -840 Descending Fort Worth Center
11:02PM 32.4125 -96.4906 308° West 292 336 10,900 -900 Descending Fort Worth Center
11:03PM 32.4528 -96.5789 298° West 280 322 9,600 -1,020 Descending Fort Worth Center
11:04PM 32.4803 -96.6400 298° West 252 290 8,900 -1,380 Descending Fort Worth Center
11:05PM 32.4994 -96.7114 288° West 225 259 6,900 -1,620 Descending Fort Worth Center
11:06PM 32.4956 -96.7756 266° West 214 246 5,700 -960 Descending Fort Worth Center
11:07PM 32.4878 -96.8544 263° West 219 252 5,000 -360 Descending Fort Worth Center
11:08PM 32.5067 -96.9208 289° West 214 246 5,000 -240 Level Fort Worth Center
11:09PM 32.5342 -96.9797 299° West 214 246 4,600 -540 Descending Fort Worth Center
11:10PM 32.5803 -97.0139 328° Northwest 193 222 4,000 -240 Descending Fort Worth Center
11:11PM 32.6333 -97.0333 343° North 196 226 4,100  Climbing Dallas / Fort Worth TRACON
11:12PM 32.6833 -97.0333 360° North 155 178 4,100 -240 Level Dallas / Fort Worth TRACON
11:13PM 32.7333 -97.0333 360° North 156 180 3,700 -660 Descending Dallas / Fort Worth TRACON
11:14PM 32.7667 -97.0333 360° North 152 175 2,800 -900 Descending Dallas / Fort Worth TRACON
11:15PM 32.8000 -97.0333 360° North 126 145 2,000 -720 Descending Dallas / Fort Worth TRACON
11:16PM 32.8333 -97.0333 360° North 114 131 1,400 -600 Descending Dallas / Fort Worth TRACON
11:18PM 32.8833 -97.0333 308° West  Level FlightAware Approximate
11:25PM 32.8968 -97.0380 308° West  Level Estimated
11:26PM 32.8968 -97.0380 308° West  Level Estimated